sensor_id;sensor_type;location;lat;lon;timestamp;pressure;altitude;pressure_sealevel;temperature;humidity
41800;BME280;27468;47.460;19.034;2022-10-22T00:02:11;100462.50;;;11.01;61.80
41800;BME280;27468;47.460;19.034;2022-10-22T00:04:40;100469.41;;;11.06;61.98
41800;BME280;27468;47.460;19.034;2022-10-22T00:07:05;100411.19;;;10.74;61.83
41800;BME280;27468;47.460;19.034;2022-10-22T00:09:30;100460.69;;;11.03;61.48
41800;BME280;27468;47.460;19.034;2022-10-22T00:11:56;100445.75;;;11.02;61.65
41800;BME280;27468;47.460;19.034;2022-10-22T00:14:21;100489.25;;;11.25;61.14
41800;BME280;27468;47.460;19.034;2022-10-22T00:16:47;100475.34;;;11.17;61.01
41800;BME280;27468;47.460;19.034;2022-10-22T00:19:12;100473.47;;;11.22;61.21
41800;BME280;27468;47.460;19.034;2022-10-22T00:21:39;100484.06;;;11.21;61.35
41800;BME280;27468;47.460;19.034;2022-10-22T00:24:04;100464.06;;;11.09;61.73
41800;BME280;27468;47.460;19.034;2022-10-22T00:26:30;100491.06;;;11.23;61.24
41800;BME280;27468;47.460;19.034;2022-10-22T00:28:55;100460.72;;;11.01;61.67
41800;BME280;27468;47.460;19.034;2022-10-22T00:31:20;100477.31;;;11.08;61.65
41800;BME280;27468;47.460;19.034;2022-10-22T00:33:46;100439.00;;;10.90;61.65
41800;BME280;27468;47.460;19.034;2022-10-22T00:36:13;100491.88;;;11.25;61.69
41800;BME280;27468;47.460;19.034;2022-10-22T00:38:38;100440.56;;;10.99;61.74
41800;BME280;27468;47.460;19.034;2022-10-22T00:41:04;100437.91;;;10.99;61.92
41800;BME280;27468;47.460;19.034;2022-10-22T00:43:30;100469.13;;;11.20;61.64
41800;BME280;27468;47.460;19.034;2022-10-22T00:45:55;100441.34;;;11.02;61.41
41800;BME280;27468;47.460;19.034;2022-10-22T00:48:27;100482.19;;;11.26;62.15
41800;BME280;27468;47.460;19.034;2022-10-22T00:51:03;100464.78;;;11.17;61.95
41800;BME280;27468;47.460;19.034;2022-10-22T00:53:34;100409.09;;;10.91;61.93
41800;BME280;27468;47.460;19.034;2022-10-22T00:56:01;100417.72;;;10.98;61.83
41800;BME280;27468;47.460;19.034;2022-10-22T00:58:28;100460.44;;;11.15;61.99
41800;BME280;27468;47.460;19.034;2022-10-22T01:00:55;100421.19;;;11.00;61.90
41800;BME280;27468;47.460;19.034;2022-10-22T01:03:21;100479.47;;;11.31;61.86
41800;BME280;27468;47.460;19.034;2022-10-22T01:05:56;100424.88;;;10.93;61.71
41800;BME280;27468;47.460;19.034;2022-10-22T01:11:26;100475.25;;;11.22;62.46
41800;BME280;27468;47.460;19.034;2022-10-22T01:14:17;100482.94;;;11.33;62.23
41800;BME280;27468;47.460;19.034;2022-10-22T01:17:07;100450.81;;;11.12;61.91
41800;BME280;27468;47.460;19.034;2022-10-22T01:22:28;100489.06;;;11.35;61.87
41800;BME280;27468;47.460;19.034;2022-10-22T01:25:00;100482.88;;;11.36;61.84
41800;BME280;27468;47.460;19.034;2022-10-22T01:30:06;100484.81;;;11.28;62.04
41800;BME280;27468;47.460;19.034;2022-10-22T01:32:38;100474.50;;;11.15;62.34
41800;BME280;27468;47.460;19.034;2022-10-22T01:35:07;100424.03;;;10.90;62.54
41800;BME280;27468;47.460;19.034;2022-10-22T01:37:41;100473.88;;;11.03;62.99
41800;BME280;27468;47.460;19.034;2022-10-22T01:40:09;100468.50;;;11.07;62.90
41800;BME280;27468;47.460;19.034;2022-10-22T01:42:35;100485.03;;;11.17;63.36
41800;BME280;27468;47.460;19.034;2022-10-22T01:45:00;100453.69;;;11.02;63.18
41800;BME280;27468;47.460;19.034;2022-10-22T01:50:22;100473.59;;;11.16;63.31
41800;BME280;27468;47.460;19.034;2022-10-22T01:58:40;100469.22;;;11.15;63.70
41800;BME280;27468;47.460;19.034;2022-10-22T02:04:04;100403.13;;;10.81;63.80
41800;BME280;27468;47.460;19.034;2022-10-22T02:06:31;100457.03;;;11.10;63.69
41800;BME280;27468;47.460;19.034;2022-10-22T02:08:59;100457.91;;;11.10;64.19
41800;BME280;27468;47.460;19.034;2022-10-22T02:11:26;100385.69;;;10.74;64.04
41800;BME280;27468;47.460;19.034;2022-10-22T02:13:54;100396.22;;;10.74;64.30
41800;BME280;27468;47.460;19.034;2022-10-22T02:16:27;100476.38;;;11.10;65.33
41800;BME280;27468;47.460;19.034;2022-10-22T02:18:55;100455.47;;;11.00;65.96
41800;BME280;27468;47.460;19.034;2022-10-22T02:21:22;100399.91;;;10.67;65.87
41800;BME280;27468;47.460;19.034;2022-10-22T02:23:48;100421.66;;;10.78;65.53
41800;BME280;27468;47.460;19.034;2022-10-22T02:26:20;100451.31;;;10.89;66.97
41800;BME280;27468;47.460;19.034;2022-10-22T02:28:55;100423.75;;;10.61;67.32
41800;BME280;27468;47.460;19.034;2022-10-22T02:31:27;100462.06;;;10.79;67.38
41800;BME280;27468;47.460;19.034;2022-10-22T02:33:55;100472.56;;;10.82;67.20
41800;BME280;27468;47.460;19.034;2022-10-22T02:36:22;100415.03;;;10.56;66.88
41800;BME280;27468;47.460;19.034;2022-10-22T02:38:50;100454.16;;;10.79;68.12
41800;BME280;27468;47.460;19.034;2022-10-22T02:41:17;100438.44;;;10.74;67.86
41800;BME280;27468;47.460;19.034;2022-10-22T02:43:49;100380.41;;;10.31;68.33
41800;BME280;27468;47.460;19.034;2022-10-22T02:46:14;100443.06;;;10.62;68.05
41800;BME280;27468;47.460;19.034;2022-10-22T02:48:40;100465.06;;;10.59;68.61
41800;BME280;27468;47.460;19.034;2022-10-22T02:51:05;100474.81;;;10.55;68.28
41800;BME280;27468;47.460;19.034;2022-10-22T02:53:31;100487.91;;;10.60;68.63
41800;BME280;27468;47.460;19.034;2022-10-22T02:55:57;100457.66;;;10.33;68.63
41800;BME280;27468;47.460;19.034;2022-10-22T02:58:22;100436.78;;;10.21;68.96
41800;BME280;27468;47.460;19.034;2022-10-22T03:00:48;100477.78;;;10.39;69.04
41800;BME280;27468;47.460;19.034;2022-10-22T03:03:13;100438.56;;;10.17;68.78
41800;BME280;27468;47.460;19.034;2022-10-22T03:05:38;100439.56;;;10.10;68.81
41800;BME280;27468;47.460;19.034;2022-10-22T03:08:04;100482.34;;;10.28;69.05
41800;BME280;27468;47.460;19.034;2022-10-22T03:10:29;100430.22;;;9.92;69.30
41800;BME280;27468;47.460;19.034;2022-10-22T03:12:55;100435.56;;;9.88;70.04
41800;BME280;27468;47.460;19.034;2022-10-22T03:15:20;100398.22;;;9.65;70.44
41800;BME280;27468;47.460;19.034;2022-10-22T03:17:52;100477.41;;;10.06;70.75
41800;BME280;27468;47.460;19.034;2022-10-22T03:20:18;100429.69;;;9.72;71.38
41800;BME280;27468;47.460;19.034;2022-10-22T03:22:43;100442.88;;;9.71;72.78
41800;BME280;27468;47.460;19.034;2022-10-22T03:25:13;100472.47;;;9.85;73.44
41800;BME280;27468;47.460;19.034;2022-10-22T03:27:41;100450.69;;;9.77;72.40
41800;BME280;27468;47.460;19.034;2022-10-22T03:30:07;100461.09;;;9.83;73.12
41800;BME280;27468;47.460;19.034;2022-10-22T03:32:33;100460.38;;;9.75;74.90
41800;BME280;27468;47.460;19.034;2022-10-22T03:34:58;100405.63;;;9.38;75.13
41800;BME280;27468;47.460;19.034;2022-10-22T03:37:25;100382.06;;;9.31;74.42
41800;BME280;27468;47.460;19.034;2022-10-22T03:39:52;100426.31;;;9.63;74.11
41800;BME280;27468;47.460;19.034;2022-10-22T03:42:18;100429.72;;;9.71;73.93
41800;BME280;27468;47.460;19.034;2022-10-22T03:44:44;100409.75;;;9.56;74.63
41800;BME280;27468;47.460;19.034;2022-10-22T03:47:09;100422.78;;;9.65;74.39
41800;BME280;27468;47.460;19.034;2022-10-22T03:49:35;100385.41;;;9.42;74.31
41800;BME280;27468;47.460;19.034;2022-10-22T03:52:08;100420.19;;;9.62;73.89
41800;BME280;27468;47.460;19.034;2022-10-22T03:54:35;100375.91;;;9.32;74.46
41800;BME280;27468;47.460;19.034;2022-10-22T03:57:00;100361.97;;;9.25;74.39
41800;BME280;27468;47.460;19.034;2022-10-22T03:59:26;100439.47;;;9.64;74.52
41800;BME280;27468;47.460;19.034;2022-10-22T04:01:51;100423.75;;;9.58;74.07
41800;BME280;27468;47.460;19.034;2022-10-22T04:04:16;100434.38;;;9.52;74.01
41800;BME280;27468;47.460;19.034;2022-10-22T04:06:42;100392.59;;;9.29;74.40
41800;BME280;27468;47.460;19.034;2022-10-22T04:09:07;100424.03;;;9.38;75.10
41800;BME280;27468;47.460;19.034;2022-10-22T04:11:33;100401.34;;;9.31;75.00
41800;BME280;27468;47.460;19.034;2022-10-22T04:13:58;100463.19;;;9.61;75.13
41800;BME280;27468;47.460;19.034;2022-10-22T04:16:30;100390.88;;;9.26;75.09
41800;BME280;27468;47.460;19.034;2022-10-22T04:18:57;100421.31;;;9.44;75.25
41800;BME280;27468;47.460;19.034;2022-10-22T04:21:23;100450.13;;;9.55;75.95
41800;BME280;27468;47.460;19.034;2022-10-22T04:23:51;100454.56;;;9.51;76.06
41800;BME280;27468;47.460;19.034;2022-10-22T04:26:17;100428.41;;;9.39;75.44
41800;BME280;27468;47.460;19.034;2022-10-22T04:28:44;100411.91;;;9.28;76.02
41800;BME280;27468;47.460;19.034;2022-10-22T04:31:12;100471.16;;;9.56;75.52
41800;BME280;27468;47.460;19.034;2022-10-22T04:33:37;100455.38;;;9.56;75.60
41800;BME280;27468;47.460;19.034;2022-10-22T04:36:14;100424.06;;;9.37;75.61
41800;BME280;27468;47.460;19.034;2022-10-22T04:38:41;100445.78;;;9.51;75.55
41800;BME280;27468;47.460;19.034;2022-10-22T04:41:15;100371.91;;;9.06;76.19
41800;BME280;27468;47.460;19.034;2022-10-22T04:43:41;100417.16;;;9.28;76.10
41800;BME280;27468;47.460;19.034;2022-10-22T04:46:07;100370.25;;;8.99;76.54
41800;BME280;27468;47.460;19.034;2022-10-22T04:48:36;100427.72;;;9.25;76.76
41800;BME280;27468;47.460;19.034;2022-10-22T04:51:03;100398.13;;;9.12;76.18
41800;BME280;27468;47.460;19.034;2022-10-22T04:53:29;100422.59;;;9.19;76.84
41800;BME280;27468;47.460;19.034;2022-10-22T04:55:54;100395.53;;;9.09;76.62
41800;BME280;27468;47.460;19.034;2022-10-22T04:58:20;100414.66;;;9.22;76.36
41800;BME280;27468;47.460;19.034;2022-10-22T05:00:45;100394.69;;;9.06;76.65
41800;BME280;27468;47.460;19.034;2022-10-22T05:03:10;100442.63;;;9.26;76.86
41800;BME280;27468;47.460;19.034;2022-10-22T05:05:36;100372.22;;;8.80;77.03
41800;BME280;27468;47.460;19.034;2022-10-22T05:08:01;100441.88;;;9.18;76.51
41800;BME280;27468;47.460;19.034;2022-10-22T05:10:27;100427.06;;;9.11;76.67
41800;BME280;27468;47.460;19.034;2022-10-22T05:12:52;100408.75;;;9.03;76.78
41800;BME280;27468;47.460;19.034;2022-10-22T05:15:18;100420.13;;;9.05;77.10
41800;BME280;27468;47.460;19.034;2022-10-22T05:17:43;100392.31;;;8.87;76.77
41800;BME280;27468;47.460;19.034;2022-10-22T05:20:09;100369.66;;;8.76;77.16
41800;BME280;27468;47.460;19.034;2022-10-22T05:22:34;100402.66;;;9.01;76.86
41800;BME280;27468;47.460;19.034;2022-10-22T05:25:00;100454.00;;;9.26;76.88
41800;BME280;27468;47.460;19.034;2022-10-22T05:27:25;100393.94;;;8.96;76.83
41800;BME280;27468;47.460;19.034;2022-10-22T05:29:51;100452.34;;;9.22;76.58
41800;BME280;27468;47.460;19.034;2022-10-22T05:32:17;100408.72;;;9.06;76.64
41800;BME280;27468;47.460;19.034;2022-10-22T05:34:42;100396.63;;;8.91;76.94
41800;BME280;27468;47.460;19.034;2022-10-22T05:37:08;100420.06;;;9.11;76.54
41800;BME280;27468;47.460;19.034;2022-10-22T05:39:33;100386.94;;;8.97;76.48
41800;BME280;27468;47.460;19.034;2022-10-22T05:42:02;100419.94;;;9.20;76.26
41800;BME280;27468;47.460;19.034;2022-10-22T05:44:27;100423.22;;;9.35;76.21
41800;BME280;27468;47.460;19.034;2022-10-22T05:46:53;100421.50;;;9.31;75.60
41800;BME280;27468;47.460;19.034;2022-10-22T05:49:18;100432.78;;;9.40;75.50
41800;BME280;27468;47.460;19.034;2022-10-22T05:51:44;100458.09;;;9.49;75.70
41800;BME280;27468;47.460;19.034;2022-10-22T05:54:17;100392.81;;;9.15;75.37
41800;BME280;27468;47.460;19.034;2022-10-22T05:56:43;100457.16;;;9.54;75.45
41800;BME280;27468;47.460;19.034;2022-10-22T05:59:12;100431.13;;;9.33;75.49
41800;BME280;27468;47.460;19.034;2022-10-22T06:01:38;100433.72;;;9.36;75.08
41800;BME280;27468;47.460;19.034;2022-10-22T06:04:06;100467.59;;;9.60;75.01
41800;BME280;27468;47.460;19.034;2022-10-22T06:09:04;100447.63;;;9.46;74.87
41800;BME280;27468;47.460;19.034;2022-10-22T06:11:31;100492.03;;;9.70;74.74
41800;BME280;27468;47.460;19.034;2022-10-22T06:13:56;100465.00;;;9.57;75.25
41800;BME280;27468;47.460;19.034;2022-10-22T06:16:22;100449.38;;;9.45;75.27
41800;BME280;27468;47.460;19.034;2022-10-22T06:18:47;100441.59;;;9.38;75.07
41800;BME280;27468;47.460;19.034;2022-10-22T06:21:14;100464.16;;;9.54;74.73
41800;BME280;27468;47.460;19.034;2022-10-22T06:23:40;100484.94;;;9.74;74.53
41800;BME280;27468;47.460;19.034;2022-10-22T06:26:06;100470.84;;;9.78;74.20
41800;BME280;27468;47.460;19.034;2022-10-22T06:28:32;100481.25;;;9.84;74.05
41800;BME280;27468;47.460;19.034;2022-10-22T06:30:58;100490.66;;;10.00;74.05
41800;BME280;27468;47.460;19.034;2022-10-22T06:33:25;100476.75;;;9.92;73.95
41800;BME280;27468;47.460;19.034;2022-10-22T06:35:51;100495.00;;;10.03;74.12
41800;BME280;27468;47.460;19.034;2022-10-22T06:38:17;100462.63;;;9.96;74.22
41800;BME280;27468;47.460;19.034;2022-10-22T06:40:42;100482.59;;;10.11;73.94
41800;BME280;27468;47.460;19.034;2022-10-22T06:43:12;100498.22;;;10.24;74.22
41800;BME280;27468;47.460;19.034;2022-10-22T06:45:38;100456.31;;;10.06;73.77
41800;BME280;27468;47.460;19.034;2022-10-22T06:48:03;100509.50;;;10.33;72.62
41800;BME280;27468;47.460;19.034;2022-10-22T06:50:29;100515.31;;;10.51;71.70
41800;BME280;27468;47.460;19.034;2022-10-22T06:52:55;100455.19;;;10.24;70.91
41800;BME280;27468;47.460;19.034;2022-10-22T06:55:21;100437.59;;;10.26;70.67
41800;BME280;27468;47.460;19.034;2022-10-22T06:57:46;100500.94;;;10.69;69.99
41800;BME280;27468;47.460;19.034;2022-10-22T07:00:12;100500.66;;;10.84;69.45
41800;BME280;27468;47.460;19.034;2022-10-22T07:02:38;100458.56;;;10.78;69.41
41800;BME280;27468;47.460;19.034;2022-10-22T07:05:04;100421.88;;;10.66;68.38
41800;BME280;27468;47.460;19.034;2022-10-22T07:07:29;100437.28;;;10.87;68.56
41800;BME280;27468;47.460;19.034;2022-10-22T07:09:54;100457.09;;;11.07;68.43
41800;BME280;27468;47.460;19.034;2022-10-22T07:12:20;100456.06;;;11.14;67.55
41800;BME280;27468;47.460;19.034;2022-10-22T07:14:45;100431.59;;;11.06;66.07
41800;BME280;27468;47.460;19.034;2022-10-22T07:17:11;100445.44;;;11.17;65.88
41800;BME280;27468;47.460;19.034;2022-10-22T07:19:36;100488.69;;;11.53;66.05
41800;BME280;27468;47.460;19.034;2022-10-22T07:22:02;100454.03;;;11.27;65.46
41800;BME280;27468;47.460;19.034;2022-10-22T07:24:27;100424.59;;;11.05;64.94
41800;BME280;27468;47.460;19.034;2022-10-22T07:26:52;100472.34;;;11.34;64.83
41800;BME280;27468;47.460;19.034;2022-10-22T07:29:18;100437.47;;;11.20;65.35
41800;BME280;27468;47.460;19.034;2022-10-22T07:31:43;100485.44;;;11.40;65.90
41800;BME280;27468;47.460;19.034;2022-10-22T07:34:09;100478.34;;;11.42;65.77
41800;BME280;27468;47.460;19.034;2022-10-22T07:36:35;100488.75;;;11.50;65.37
41800;BME280;27468;47.460;19.034;2022-10-22T07:39:01;100461.84;;;11.33;65.49
41800;BME280;27468;47.460;19.034;2022-10-22T07:41:27;100466.16;;;11.37;64.85
41800;BME280;27468;47.460;19.034;2022-10-22T07:43:54;100439.94;;;11.28;65.05
41800;BME280;27468;47.460;19.034;2022-10-22T07:46:20;100437.31;;;11.28;64.11
41800;BME280;27468;47.460;19.034;2022-10-22T07:48:46;100453.78;;;11.39;63.72
41800;BME280;27468;47.460;19.034;2022-10-22T07:51:12;100448.41;;;11.43;63.84
41800;BME280;27468;47.460;19.034;2022-10-22T07:53:37;100479.75;;;11.57;63.50
41800;BME280;27468;47.460;19.034;2022-10-22T07:56:03;100492.75;;;11.66;63.09
41800;BME280;27468;47.460;19.034;2022-10-22T07:58:29;100492.69;;;11.69;63.33
41800;BME280;27468;47.460;19.034;2022-10-22T08:00:56;100503.03;;;11.80;63.52
41800;BME280;27468;47.460;19.034;2022-10-22T08:03:21;100485.47;;;11.79;62.74
41800;BME280;27468;47.460;19.034;2022-10-22T08:05:47;100485.06;;;11.96;62.73
41800;BME280;27468;47.460;19.034;2022-10-22T08:08:14;100499.72;;;12.09;62.38
41800;BME280;27468;47.460;19.034;2022-10-22T08:10:40;100478.59;;;12.09;62.50
41800;BME280;27468;47.460;19.034;2022-10-22T08:13:06;100495.69;;;12.28;62.30
41800;BME280;27468;47.460;19.034;2022-10-22T08:15:32;100448.00;;;11.99;61.73
41800;BME280;27468;47.460;19.034;2022-10-22T08:17:57;100426.69;;;12.06;61.35
41800;BME280;27468;47.460;19.034;2022-10-22T08:20:23;100431.59;;;12.20;60.88
41800;BME280;27468;47.460;19.034;2022-10-22T08:22:48;100477.25;;;12.61;60.23
41800;BME280;27468;47.460;19.034;2022-10-22T08:25:14;100459.56;;;12.63;60.39
41800;BME280;27468;47.460;19.034;2022-10-22T08:27:40;100376.50;;;12.37;59.53
41800;BME280;27468;47.460;19.034;2022-10-22T08:30:06;100365.47;;;12.54;58.75
41800;BME280;27468;47.460;19.034;2022-10-22T08:32:32;100438.47;;;13.23;58.82
41800;BME280;27468;47.460;19.034;2022-10-22T08:34:57;100461.16;;;13.60;57.75
41800;BME280;27468;47.460;19.034;2022-10-22T08:37:23;100381.06;;;13.24;57.04
41800;BME280;27468;47.460;19.034;2022-10-22T08:39:48;100458.56;;;13.86;57.03
41800;BME280;27468;47.460;19.034;2022-10-22T08:50:44;100498.75;;;14.27;55.97
41800;BME280;27468;47.460;19.034;2022-10-22T08:53:17;100447.38;;;14.03;56.00
41800;BME280;27468;47.460;19.034;2022-10-22T08:55:43;100467.38;;;14.13;55.58
41800;BME280;27468;47.460;19.034;2022-10-22T08:58:24;100495.13;;;14.29;56.06
41800;BME280;27468;47.460;19.034;2022-10-22T09:01:04;100490.44;;;14.37;56.30
41800;BME280;27468;47.460;19.034;2022-10-22T09:04:22;100480.03;;;14.31;56.62
41800;BME280;27468;47.460;19.034;2022-10-22T09:06:30;100458.47;;;14.15;56.24
41800;BME280;27468;47.460;19.034;2022-10-22T09:08:57;100452.44;;;14.10;56.35
41800;BME280;27468;47.460;19.034;2022-10-22T09:11:30;100494.75;;;14.41;56.03
41800;BME280;27468;47.460;19.034;2022-10-22T09:13:57;100470.59;;;14.23;56.13
41800;BME280;27468;47.460;19.034;2022-10-22T09:21:52;100485.53;;;14.51;57.09
41800;BME280;27468;47.460;19.034;2022-10-22T09:24:44;100416.75;;;14.20;56.43
41800;BME280;27468;47.460;19.034;2022-10-22T09:27:17;100472.63;;;14.67;56.65
41800;BME280;27468;47.460;19.034;2022-10-22T09:29:45;100430.25;;;14.39;55.86
41800;BME280;27468;47.460;19.034;2022-10-22T09:32:12;100479.09;;;14.59;56.22
41800;BME280;27468;47.460;19.034;2022-10-22T09:34:37;100472.06;;;14.58;56.24
41800;BME280;27468;47.460;19.034;2022-10-22T09:37:06;100495.97;;;14.82;55.97
41800;BME280;27468;47.460;19.034;2022-10-22T09:39:38;100470.34;;;14.81;55.83
41800;BME280;27468;47.460;19.034;2022-10-22T09:42:05;100476.94;;;14.95;56.03
41800;BME280;27468;47.460;19.034;2022-10-22T09:44:35;100497.06;;;15.02;56.02
41800;BME280;27468;47.460;19.034;2022-10-22T09:47:05;100449.44;;;14.72;56.36
41800;BME280;27468;47.460;19.034;2022-10-22T09:49:33;100421.50;;;14.62;55.00
41800;BME280;27468;47.460;19.034;2022-10-22T09:52:00;100489.66;;;15.10;54.75
41800;BME280;27468;47.460;19.034;2022-10-22T09:59:30;100449.88;;;15.08;54.11
41800;BME280;27468;47.460;19.034;2022-10-22T10:01:57;100472.22;;;15.26;54.38
41800;BME280;27468;47.460;19.034;2022-10-22T10:04:23;100454.56;;;15.25;53.96
41800;BME280;27468;47.460;19.034;2022-10-22T10:06:53;100475.41;;;15.36;53.50
41800;BME280;27468;47.460;19.034;2022-10-22T10:09:22;100468.19;;;15.39;53.33
41800;BME280;27468;47.460;19.034;2022-10-22T10:11:58;100453.97;;;15.40;53.49
41800;BME280;27468;47.460;19.034;2022-10-22T10:14:52;100481.59;;;15.60;53.39
41800;BME280;27468;47.460;19.034;2022-10-22T10:23:02;100431.38;;;15.52;53.07
41800;BME280;27468;47.460;19.034;2022-10-22T10:36:26;100436.66;;;15.75;53.21
41800;BME280;27468;47.460;19.034;2022-10-22T10:39:00;100432.38;;;15.71;53.18
41800;BME280;27468;47.460;19.034;2022-10-22T10:41:45;100437.78;;;15.92;53.27
41800;BME280;27468;47.460;19.034;2022-10-22T10:44:21;100471.13;;;16.21;53.42
41800;BME280;27468;47.460;19.034;2022-10-22T10:49:37;100447.59;;;16.11;54.06
41800;BME280;27468;47.460;19.034;2022-10-22T11:05:38;100475.97;;;16.53;51.49
41800;BME280;27468;47.460;19.034;2022-10-22T11:08:29;100484.50;;;16.61;51.52
41800;BME280;27468;47.460;19.034;2022-10-22T11:11:01;100419.22;;;16.32;51.89
41800;BME280;27468;47.460;19.034;2022-10-22T11:13:35;100476.88;;;16.74;51.81
41800;BME280;27468;47.460;19.034;2022-10-22T11:16:13;100429.53;;;16.40;52.28
41800;BME280;27468;47.460;19.034;2022-10-22T11:19:04;100455.28;;;16.60;52.65
41800;BME280;27468;47.460;19.034;2022-10-22T11:21:39;100467.22;;;16.71;52.28
41800;BME280;27468;47.460;19.034;2022-10-22T11:29:14;100426.28;;;16.54;52.14
41800;BME280;27468;47.460;19.034;2022-10-22T11:31:42;100397.31;;;16.46;52.39
41800;BME280;27468;47.460;19.034;2022-10-22T11:36:49;100418.38;;;16.72;52.80
41800;BME280;27468;47.460;19.034;2022-10-22T11:39:41;100419.41;;;16.89;52.70
41800;BME280;27468;47.460;19.034;2022-10-22T11:42:17;100417.53;;;16.91;52.81
41800;BME280;27468;47.460;19.034;2022-10-22T11:44:45;100413.06;;;16.91;52.81
41800;BME280;27468;47.460;19.034;2022-10-22T11:47:19;100399.97;;;16.87;52.51
41800;BME280;27468;47.460;19.034;2022-10-22T11:50:15;100436.13;;;17.11;52.00
41800;BME280;27468;47.460;19.034;2022-10-22T11:58:01;100398.31;;;16.84;53.38
41800;BME280;27468;47.460;19.034;2022-10-22T12:00:47;100421.97;;;17.10;52.83
41800;BME280;27468;47.460;19.034;2022-10-22T12:08:43;100416.41;;;17.15;53.84
41800;BME280;27468;47.460;19.034;2022-10-22T12:16:27;100420.88;;;17.33;53.19
41800;BME280;27468;47.460;19.034;2022-10-22T12:19:11;100412.09;;;17.31;52.70
41800;BME280;27468;47.460;19.034;2022-10-22T12:21:40;100396.34;;;17.27;52.69
41800;BME280;27468;47.460;19.034;2022-10-22T12:24:12;100397.34;;;17.24;53.69
41800;BME280;27468;47.460;19.034;2022-10-22T12:26:38;100414.34;;;17.22;54.11
41800;BME280;27468;47.460;19.034;2022-10-22T12:29:09;100395.75;;;17.20;53.86
41800;BME280;27468;47.460;19.034;2022-10-22T12:31:37;100381.78;;;17.15;54.09
41800;BME280;27468;47.460;19.034;2022-10-22T12:34:03;100402.97;;;17.18;54.20
41800;BME280;27468;47.460;19.034;2022-10-22T12:36:30;100392.72;;;17.09;54.94
41800;BME280;27468;47.460;19.034;2022-10-22T12:39:00;100393.53;;;17.11;55.99
41800;BME280;27468;47.460;19.034;2022-10-22T12:41:32;100337.50;;;16.75;56.45
41800;BME280;27468;47.460;19.034;2022-10-22T12:44:02;100396.31;;;17.08;56.19
41800;BME280;27468;47.460;19.034;2022-10-22T12:46:31;100319.69;;;16.57;56.28
41800;BME280;27468;47.460;19.034;2022-10-22T12:49:03;100353.81;;;16.67;56.60
41800;BME280;27468;47.460;19.034;2022-10-22T12:51:30;100393.91;;;16.83;56.64
41800;BME280;27468;47.460;19.034;2022-10-22T12:53:58;100404.34;;;16.88;56.45
41800;BME280;27468;47.460;19.034;2022-10-22T12:56:31;100412.63;;;16.81;56.46
41800;BME280;27468;47.460;19.034;2022-10-22T12:59:01;100411.03;;;16.77;56.68
41800;BME280;27468;47.460;19.034;2022-10-22T13:01:31;100416.22;;;16.80;56.79
41800;BME280;27468;47.460;19.034;2022-10-22T13:06:49;100409.88;;;16.64;57.05
41800;BME280;27468;47.460;19.034;2022-10-22T13:09:20;100376.03;;;16.46;57.25
41800;BME280;27468;47.460;19.034;2022-10-22T13:12:01;100411.53;;;16.67;57.27
41800;BME280;27468;47.460;19.034;2022-10-22T13:14:34;100408.94;;;16.65;57.34
41800;BME280;27468;47.460;19.034;2022-10-22T13:17:13;100370.66;;;16.47;57.30
41800;BME280;27468;47.460;19.034;2022-10-22T13:24:54;100417.78;;;16.66;58.00
41800;BME280;27468;47.460;19.034;2022-10-22T13:27:25;100364.00;;;16.37;58.17
41800;BME280;27468;47.460;19.034;2022-10-22T13:29:51;100405.84;;;16.54;58.51
41800;BME280;27468;47.460;19.034;2022-10-22T13:32:31;100369.91;;;16.44;58.21
41800;BME280;27468;47.460;19.034;2022-10-22T13:34:59;100377.75;;;16.47;58.60
41800;BME280;27468;47.460;19.034;2022-10-22T13:37:26;100342.13;;;16.31;58.91
41800;BME280;27468;47.460;19.034;2022-10-22T13:39:53;100380.22;;;16.51;58.67
41800;BME280;27468;47.460;19.034;2022-10-22T13:42:18;100385.47;;;16.53;58.81
41800;BME280;27468;47.460;19.034;2022-10-22T13:44:44;100403.47;;;16.68;58.64
41800;BME280;27468;47.460;19.034;2022-10-22T13:47:28;100398.09;;;16.70;58.80
41800;BME280;27468;47.460;19.034;2022-10-22T13:49:56;100367.19;;;16.45;59.02
41800;BME280;27468;47.460;19.034;2022-10-22T13:55:12;100360.34;;;16.40;59.07
41800;BME280;27468;47.460;19.034;2022-10-22T13:57:37;100403.97;;;16.56;59.46
41800;BME280;27468;47.460;19.034;2022-10-22T14:00:03;100419.22;;;16.52;60.54
41800;BME280;27468;47.460;19.034;2022-10-22T14:02:29;100384.16;;;16.43;57.30
41800;BME280;27468;47.460;19.034;2022-10-22T14:04:54;100385.53;;;16.31;56.97
41800;BME280;27468;47.460;19.034;2022-10-22T14:07:20;100371.78;;;16.22;57.01
41800;BME280;27468;47.460;19.034;2022-10-22T14:09:45;100409.97;;;16.41;57.19
41800;BME280;27468;47.460;19.034;2022-10-22T14:12:14;100433.31;;;16.34;57.88
41800;BME280;27468;47.460;19.034;2022-10-22T14:14:40;100379.81;;;16.00;57.33
41800;BME280;27468;47.460;19.034;2022-10-22T14:17:11;100435.78;;;16.39;56.55
41800;BME280;27468;47.460;19.034;2022-10-22T14:19:42;100449.88;;;16.41;56.07
41800;BME280;27468;47.460;19.034;2022-10-22T14:22:18;100416.34;;;16.16;56.71
41800;BME280;27468;47.460;19.034;2022-10-22T14:24:44;100391.28;;;16.02;56.82
41800;BME280;27468;47.460;19.034;2022-10-22T14:27:12;100387.56;;;16.06;58.29
41800;BME280;27468;47.460;19.034;2022-10-22T14:29:38;100421.00;;;16.32;58.91
41800;BME280;27468;47.460;19.034;2022-10-22T14:32:12;100428.84;;;16.35;60.17
41800;BME280;27468;47.460;19.034;2022-10-22T14:34:38;100370.00;;;16.02;60.65
41800;BME280;27468;47.460;19.034;2022-10-22T14:37:04;100329.59;;;15.72;61.07
41800;BME280;27468;47.460;19.034;2022-10-22T14:39:29;100380.88;;;15.96;61.75